createdAt,value
2023-05-14T00:00:40.742Z,10.60
2023-05-14T00:03:08.763Z,10.80
2023-05-14T00:05:38.031Z,10.80
2023-05-14T00:08:06.398Z,10.70
2023-05-14T00:10:34.215Z,10.70
2023-05-14T00:13:02.264Z,10.70
2023-05-14T00:15:31.326Z,10.80
2023-05-14T00:18:00.789Z,10.80
2023-05-14T00:20:28.601Z,10.80
2023-05-14T00:22:57.766Z,10.80
2023-05-14T00:25:25.771Z,10.70
2023-05-14T00:27:53.547Z,10.70
2023-05-14T00:30:21.660Z,10.60
2023-05-14T00:32:49.666Z,10.40
2023-05-14T00:35:17.436Z,10.50
2023-05-14T00:37:45.244Z,10.50
2023-05-14T00:40:14.570Z,10.40
2023-05-14T00:42:42.361Z,10.50
2023-05-14T00:45:10.991Z,10.80
2023-05-14T00:47:39.335Z,10.70
2023-05-14T00:50:08.285Z,10.50
2023-05-14T00:52:36.095Z,10.50
2023-05-14T00:55:05.026Z,10.50
2023-05-14T00:57:34.200Z,10.50
2023-05-14T01:00:01.990Z,10.60
2023-05-14T01:02:29.828Z,10.70
2023-05-14T01:04:58.071Z,10.60
2023-05-14T01:07:29.600Z,10.60
2023-05-14T01:10:01.266Z,10.60
2023-05-14T01:12:34.682Z,10.70
2023-05-14T01:15:09.087Z,10.70
2023-05-14T01:17:39.741Z,10.80
2023-05-14T01:20:09.181Z,10.60
2023-05-14T01:22:38.427Z,10.40
2023-05-14T01:25:07.400Z,10.50
2023-05-14T01:27:38.872Z,10.40
2023-05-14T01:30:10.864Z,10.40
2023-05-14T01:32:38.707Z,10.30
2023-05-14T01:35:07.638Z,10.10
2023-05-14T01:37:35.471Z,10.30
2023-05-14T01:40:05.199Z,10.10
2023-05-14T01:42:33.008Z,10.20
2023-05-14T01:45:00.817Z,10.20
2023-05-14T01:47:28.629Z,10.20
2023-05-14T01:49:56.468Z,10.00
2023-05-14T01:52:24.449Z,10.10
2023-05-14T01:54:52.374Z,10.00
2023-05-14T01:57:21.576Z,10.30
2023-05-14T01:59:49.386Z,10.20
2023-05-14T02:02:17.189Z,10.30
2023-05-14T02:04:45.076Z,10.30
2023-05-14T02:07:12.910Z,10.30
2023-05-14T02:09:41.047Z,10.10
2023-05-14T02:12:11.076Z,10.00
2023-05-14T02:14:40.306Z,10.10
2023-05-14T02:17:08.373Z,10.20
2023-05-14T02:19:36.210Z,10.10
2023-05-14T02:22:03.998Z,10.30
2023-05-14T02:24:31.781Z,10.00
2023-05-14T02:27:00.989Z,9.90
2023-05-14T02:29:28.804Z,9.90
2023-05-14T02:31:57.992Z,10.10
2023-05-14T02:34:26.109Z,9.90
2023-05-14T02:36:53.937Z,10.00
2023-05-14T02:39:21.765Z,10.10
2023-05-14T02:41:49.602Z,10.00
2023-05-14T02:44:17.407Z,10.00
2023-05-14T02:46:45.671Z,10.00
2023-05-14T02:49:14.866Z,10.00
2023-05-14T02:51:42.654Z,10.00
2023-05-14T02:54:10.522Z,9.90
2023-05-14T02:56:38.352Z,9.90
2023-05-14T02:59:06.200Z,9.90
2023-05-14T03:01:34.339Z,10.00
2023-05-14T03:04:02.516Z,10.00
2023-05-14T03:06:31.955Z,10.00
2023-05-14T03:08:59.782Z,10.00
2023-05-14T03:11:27.560Z,10.20
2023-05-14T03:13:55.353Z,10.10
2023-05-14T03:16:23.471Z,10.00
2023-05-14T03:18:51.424Z,10.00
2023-05-14T03:21:19.288Z,10.00
2023-05-14T03:23:48.440Z,9.90
2023-05-14T03:26:16.247Z,10.00
2023-05-14T03:28:44.869Z,10.00
2023-05-14T03:31:12.687Z,9.80
2023-05-14T03:33:40.812Z,9.90
2023-05-14T03:36:08.867Z,9.90
2023-05-14T03:38:36.883Z,9.80
2023-05-14T03:41:06.092Z,9.80
2023-05-14T03:43:33.903Z,9.90
2023-05-14T03:46:01.724Z,9.80
2023-05-14T03:48:29.680Z,9.90
2023-05-14T03:50:57.545Z,9.90
2023-05-14T03:53:25.343Z,9.90
2023-05-14T03:55:53.350Z,9.90
2023-05-14T03:58:22.496Z,9.90
2023-05-14T04:00:50.301Z,9.80
2023-05-14T04:03:18.178Z,9.80
2023-05-14T04:05:46.170Z,9.90
2023-05-14T04:08:13.967Z,9.90
2023-05-14T04:10:43.195Z,10.00
2023-05-14T04:13:11.018Z,9.90
2023-05-14T04:15:40.378Z,10.00
2023-05-14T04:18:08.258Z,10.00
2023-05-14T04:20:36.854Z,10.10
2023-05-14T04:23:04.754Z,10.20
2023-05-14T04:25:32.555Z,10.10
2023-05-14T04:28:00.471Z,10.20
2023-05-14T04:30:28.278Z,10.10
2023-05-14T04:32:57.512Z,10.20
2023-05-14T04:35:25.878Z,10.10
2023-05-14T04:37:53.810Z,10.30
2023-05-14T04:40:22.889Z,10.30
2023-05-14T04:42:50.913Z,10.20
2023-05-14T04:45:19.192Z,10.20
2023-05-14T04:47:47.407Z,10.00
2023-05-14T04:50:16.653Z,9.80
2023-05-14T04:52:44.494Z,9.80
2023-05-14T04:55:12.330Z,9.90
2023-05-14T04:57:40.123Z,10.10
2023-05-14T05:00:10.062Z,9.90
2023-05-14T05:02:37.925Z,9.90
2023-05-14T05:05:06.318Z,9.90
2023-05-14T05:07:35.502Z,10.00
2023-05-14T05:10:03.337Z,10.10
2023-05-14T05:12:31.153Z,10.00
2023-05-14T05:14:59.023Z,10.00
2023-05-14T05:17:26.999Z,10.10
2023-05-14T05:19:55.204Z,10.00
2023-05-14T05:22:23.044Z,10.00
2023-05-14T05:24:52.160Z,10.00
2023-05-14T05:27:20.984Z,10.00
2023-05-14T05:29:48.912Z,10.20
2023-05-14T05:32:16.722Z,10.10
2023-05-14T05:34:44.648Z,10.10
2023-05-14T05:37:14.625Z,10.20
2023-05-14T05:39:42.451Z,10.20
2023-05-14T05:42:11.584Z,10.40
2023-05-14T05:44:39.387Z,10.40
2023-05-14T05:47:07.434Z,10.40
2023-05-14T05:49:36.867Z,10.30
2023-05-14T05:52:05.061Z,10.20
2023-05-14T05:54:33.351Z,10.10
2023-05-14T05:57:01.143Z,10.10
2023-05-14T05:59:30.620Z,10.10
2023-05-14T06:01:58.478Z,10.20
2023-05-14T06:04:26.509Z,10.20
2023-05-14T06:06:56.664Z,10.20
2023-05-14T06:09:24.510Z,10.10
2023-05-14T06:11:52.319Z,10.20
2023-05-14T06:14:20.132Z,10.30
2023-05-14T06:16:49.293Z,10.40
2023-05-14T06:19:17.305Z,10.40
2023-05-14T06:21:45.342Z,10.40
2023-05-14T06:24:13.301Z,10.30
2023-05-14T06:26:41.152Z,10.20
2023-05-14T06:29:09.063Z,10.30
2023-05-14T06:31:37.046Z,10.50
2023-05-14T06:34:06.212Z,10.50
2023-05-14T06:36:34.133Z,10.40
2023-05-14T06:39:01.952Z,10.40
2023-05-14T06:41:29.809Z,10.50
2023-05-14T06:43:57.655Z,10.40
2023-05-14T06:46:25.449Z,10.40
2023-05-14T06:48:53.310Z,10.50
2023-05-14T06:51:22.527Z,10.50
2023-05-14T06:53:51.299Z,10.60
2023-05-14T06:56:19.254Z,10.60
2023-05-14T06:58:47.072Z,10.60
2023-05-14T07:01:14.896Z,10.80
2023-05-14T07:03:42.718Z,10.50
2023-05-14T07:06:12.523Z,10.80
2023-05-14T07:08:45.865Z,10.80
2023-05-14T07:11:14.275Z,10.90
2023-05-14T07:13:42.145Z,10.90
2023-05-14T07:16:10.565Z,11.00
2023-05-14T07:18:38.404Z,11.10
2023-05-14T07:21:06.933Z,11.30
2023-05-14T07:23:36.217Z,11.90
2023-05-14T07:26:06.020Z,12.20
2023-05-14T07:28:33.896Z,12.00
2023-05-14T07:31:01.911Z,11.90
2023-05-14T07:33:29.780Z,11.80
2023-05-14T07:35:57.587Z,11.70
2023-05-14T07:38:25.428Z,11.70
2023-05-14T07:40:53.528Z,11.60
2023-05-14T07:43:22.667Z,11.70
2023-05-14T07:45:50.457Z,11.80
2023-05-14T07:48:18.309Z,11.80
2023-05-14T07:50:46.383Z,11.80
2023-05-14T07:53:14.205Z,12.00
2023-05-14T07:55:44.294Z,11.90
2023-05-14T07:58:12.107Z,11.70
2023-05-14T08:00:41.292Z,11.70
2023-05-14T08:03:09.134Z,11.90
2023-05-14T08:05:36.964Z,12.00
2023-05-14T08:08:05.000Z,12.10
2023-05-14T08:10:32.904Z,11.90
2023-05-14T08:13:01.102Z,12.20
2023-05-14T08:15:29.021Z,12.80
2023-05-14T08:18:03.260Z,12.80
2023-05-14T08:20:31.648Z,12.80
2023-05-14T08:22:59.519Z,12.60
2023-05-14T08:25:27.459Z,12.60
2023-05-14T08:27:55.333Z,12.60
2023-05-14T08:30:23.748Z,12.80
2023-05-14T08:32:52.929Z,12.90
2023-05-14T08:35:22.308Z,12.70
2023-05-14T08:37:51.474Z,12.70
2023-05-14T08:40:19.515Z,12.80
2023-05-14T08:42:47.419Z,12.50
2023-05-14T08:45:19.839Z,12.70
2023-05-14T08:47:49.876Z,12.60
2023-05-14T08:50:19.837Z,12.70
2023-05-14T08:52:50.288Z,12.90
2023-05-14T08:55:18.175Z,12.90
2023-05-14T08:57:46.440Z,12.70
2023-05-14T09:00:16.051Z,12.70
2023-05-14T09:02:43.949Z,12.50
2023-05-14T09:05:12.485Z,12.50
2023-05-14T09:07:40.434Z,12.60
2023-05-14T09:10:10.598Z,12.70
2023-05-14T09:12:38.433Z,12.60
2023-05-14T09:15:07.988Z,12.60
2023-05-14T09:17:35.960Z,12.60
2023-05-14T09:20:04.574Z,12.70
2023-05-14T09:22:33.143Z,12.90
2023-05-14T09:25:05.364Z,12.90
2023-05-14T09:27:34.982Z,12.70
2023-05-14T09:30:07.177Z,12.60
2023-05-14T09:32:39.441Z,12.70
2023-05-14T09:35:15.731Z,12.60
2023-05-14T09:37:44.537Z,12.70
2023-05-14T09:40:13.249Z,12.50
2023-05-14T09:42:42.542Z,12.50
2023-05-14T09:45:10.631Z,12.60
2023-05-14T09:47:38.722Z,12.40
2023-05-14T09:50:07.961Z,12.50
2023-05-14T09:52:36.050Z,12.40
2023-05-14T09:55:04.233Z,12.40
2023-05-14T09:57:32.231Z,12.50
2023-05-14T10:00:01.437Z,12.60
2023-05-14T10:02:36.855Z,12.40
2023-05-14T10:05:05.942Z,12.40
2023-05-14T10:07:36.656Z,12.40
2023-05-14T10:10:05.010Z,12.40
2023-05-14T10:12:34.679Z,12.50
2023-05-14T10:15:05.685Z,12.50
2023-05-14T10:17:34.484Z,12.70
2023-05-14T10:20:05.121Z,12.70
2023-05-14T10:22:34.781Z,12.80
2023-05-14T10:25:03.108Z,12.50
2023-05-14T10:27:31.074Z,12.30
2023-05-14T10:29:59.273Z,12.50
2023-05-14T10:32:32.996Z,12.50
2023-05-14T10:35:00.938Z,12.50
2023-05-14T10:37:28.934Z,12.40
2023-05-14T10:39:59.900Z,12.50
2023-05-14T10:42:28.752Z,12.60
2023-05-14T10:44:58.686Z,12.60
2023-05-14T10:47:28.302Z,12.70
2023-05-14T10:49:57.592Z,12.70
2023-05-14T10:52:25.726Z,12.80
2023-05-14T10:54:54.324Z,12.80
2023-05-14T10:57:22.868Z,12.80
2023-05-14T10:59:53.208Z,12.90
2023-05-14T11:02:22.562Z,12.70
2023-05-14T11:04:59.621Z,12.90
2023-05-14T11:07:29.570Z,12.90
2023-05-14T11:10:07.024Z,12.90
2023-05-14T11:12:35.074Z,13.00
2023-05-14T11:15:04.201Z,12.90
2023-05-14T11:17:32.449Z,13.00
2023-05-14T11:20:01.657Z,12.80
2023-05-14T11:22:29.534Z,12.70
2023-05-14T11:24:57.505Z,12.80
2023-05-14T11:27:26.317Z,12.90
2023-05-14T11:29:55.859Z,12.90
2023-05-14T11:32:23.865Z,13.00
2023-05-14T11:34:52.174Z,12.90
2023-05-14T11:37:21.469Z,13.10
2023-05-14T11:39:49.978Z,13.20
2023-05-14T11:42:19.484Z,13.00
2023-05-14T11:44:48.948Z,13.00
2023-05-14T11:47:17.444Z,13.10
2023-05-14T11:49:45.390Z,13.10
2023-05-14T11:52:14.780Z,13.20
2023-05-14T11:54:44.601Z,13.40
2023-05-14T11:57:13.377Z,13.50
2023-05-14T11:59:41.261Z,13.30
2023-05-14T12:02:11.227Z,13.40
2023-05-14T12:04:39.119Z,13.60
2023-05-14T12:07:09.830Z,13.60
2023-05-14T12:09:38.661Z,13.60
2023-05-14T12:12:11.906Z,13.70
2023-05-14T12:14:41.632Z,13.80
2023-05-14T12:17:16.758Z,13.90
2023-05-14T12:19:45.339Z,14.00
2023-05-14T12:22:13.347Z,14.00
2023-05-14T12:24:41.256Z,14.30
2023-05-14T12:27:10.923Z,14.40
2023-05-14T12:29:40.066Z,14.30
2023-05-14T12:32:10.954Z,14.20
2023-05-14T12:34:39.563Z,14.30
2023-05-14T12:37:07.434Z,14.30
2023-05-14T12:39:35.772Z,14.40
2023-05-14T12:42:03.623Z,14.50
2023-05-14T12:44:32.841Z,14.70
2023-05-14T12:47:00.667Z,14.80
2023-05-14T12:49:28.963Z,15.00
2023-05-14T12:52:07.838Z,15.00
2023-05-14T12:54:44.570Z,15.20
2023-05-14T12:57:12.413Z,15.50
2023-05-14T12:59:41.586Z,15.20
2023-05-14T13:02:09.711Z,15.10
2023-05-14T13:04:38.446Z,14.90
2023-05-14T13:07:07.475Z,14.70
2023-05-14T13:09:35.349Z,14.60
2023-05-14T13:12:03.184Z,14.60
2023-05-14T13:14:31.040Z,14.60
2023-05-14T13:17:00.374Z,14.60
2023-05-14T13:19:28.303Z,14.30
2023-05-14T13:21:56.129Z,14.20
2023-05-14T13:24:24.993Z,13.90
2023-05-14T13:26:52.849Z,14.00
2023-05-14T13:29:20.736Z,14.00
2023-05-14T13:31:48.694Z,14.10
2023-05-14T13:34:17.887Z,14.00
2023-05-14T13:36:47.167Z,13.90
2023-05-14T13:39:15.391Z,13.90
2023-05-14T13:41:43.288Z,13.90
2023-05-14T13:44:11.128Z,13.90
2023-05-14T13:46:39.093Z,14.10
2023-05-14T13:49:07.042Z,14.30
2023-05-14T13:51:36.292Z,14.30
2023-05-14T13:54:04.457Z,14.40
2023-05-14T13:56:32.361Z,14.30
2023-05-14T13:59:00.279Z,14.20
2023-05-14T14:01:30.632Z,14.10
2023-05-14T14:03:58.679Z,14.20
2023-05-14T14:06:27.288Z,14.40
2023-05-14T14:08:56.566Z,14.50
2023-05-14T14:11:24.426Z,14.30
2023-05-14T14:13:52.336Z,14.20
2023-05-14T14:16:20.183Z,14.40
2023-05-14T14:18:48.073Z,14.60
2023-05-14T14:21:18.025Z,14.60
2023-05-14T14:23:47.247Z,14.50
2023-05-14T14:26:16.600Z,14.20
2023-05-14T14:28:44.623Z,14.30
2023-05-14T14:31:12.555Z,14.10
2023-05-14T14:33:40.756Z,14.00
2023-05-14T14:36:09.106Z,13.90
2023-05-14T14:38:37.492Z,13.90
2023-05-14T14:41:07.098Z,14.30
2023-05-14T14:43:37.163Z,14.50
2023-05-14T14:46:05.250Z,14.60
2023-05-14T14:48:37.429Z,14.70
2023-05-14T14:51:05.558Z,14.70
2023-05-14T14:53:33.511Z,14.50
2023-05-14T14:56:01.608Z,14.40
2023-05-14T14:58:29.733Z,14.30
2023-05-14T15:00:59.278Z,14.30
2023-05-14T15:03:27.415Z,14.20
2023-05-14T15:05:55.453Z,14.20
2023-05-14T15:08:25.727Z,14.40
2023-05-14T15:10:53.611Z,14.40
2023-05-14T15:13:21.630Z,14.50
2023-05-14T15:15:50.882Z,14.30
2023-05-14T15:18:20.200Z,14.50
2023-05-14T15:20:48.199Z,14.50
2023-05-14T15:23:16.094Z,14.40
2023-05-14T15:25:43.968Z,14.50
2023-05-14T15:28:11.840Z,14.40
2023-05-14T15:30:39.734Z,14.50
2023-05-14T15:33:08.706Z,14.70
2023-05-14T15:35:38.076Z,14.70
2023-05-14T15:38:05.945Z,14.80
2023-05-14T15:40:35.428Z,14.80
2023-05-14T15:43:03.424Z,14.80
2023-05-14T15:45:31.319Z,14.60
2023-05-14T15:47:59.294Z,14.60
2023-05-14T15:50:27.447Z,14.50
2023-05-14T15:52:56.673Z,14.50
2023-05-14T15:55:24.521Z,14.30
2023-05-14T15:57:52.397Z,14.30
2023-05-14T16:00:20.968Z,13.90
2023-05-14T16:02:48.958Z,14.00
2023-05-14T16:05:16.906Z,14.00
2023-05-14T16:07:44.831Z,13.80
2023-05-14T16:10:14.185Z,13.90
2023-05-14T16:12:42.145Z,13.50
2023-05-14T16:15:10.958Z,13.50
2023-05-14T16:17:38.845Z,13.60
2023-05-14T16:20:07.906Z,13.60
2023-05-14T16:22:36.453Z,13.70
2023-05-14T16:25:05.930Z,13.60
2023-05-14T16:27:35.433Z,13.40
2023-05-14T16:30:04.434Z,13.20
2023-05-14T16:32:32.407Z,13.00
2023-05-14T16:35:01.869Z,13.10
2023-05-14T16:37:29.728Z,13.20
2023-05-14T16:39:57.595Z,13.20
2023-05-14T16:42:26.260Z,13.20
2023-05-14T16:44:55.444Z,13.10
2023-05-14T16:47:23.343Z,13.00
2023-05-14T16:49:51.257Z,13.20
2023-05-14T16:52:19.054Z,13.20
2023-05-14T16:54:46.930Z,13.30
2023-05-14T16:57:14.794Z,12.90
2023-05-14T16:59:42.653Z,13.00
2023-05-14T17:02:11.837Z,13.10
2023-05-14T17:04:42.234Z,13.20
2023-05-14T17:07:10.275Z,13.20
2023-05-14T17:09:38.171Z,13.00
2023-05-14T17:12:06.563Z,13.10
2023-05-14T17:14:34.490Z,13.00
2023-05-14T17:17:02.303Z,12.90
2023-05-14T17:19:31.549Z,13.00
2023-05-14T17:21:59.377Z,12.80
2023-05-14T17:24:27.257Z,12.70
2023-05-14T17:26:55.194Z,12.60
2023-05-14T17:29:23.097Z,12.50
2023-05-14T17:31:51.434Z,12.30
2023-05-14T17:34:19.324Z,12.30
2023-05-14T17:36:48.598Z,12.20
2023-05-14T17:39:16.458Z,12.20
2023-05-14T17:41:44.384Z,12.20
2023-05-14T17:44:13.128Z,12.20
2023-05-14T17:46:41.846Z,12.00
2023-05-14T17:49:09.810Z,11.90
2023-05-14T17:51:38.455Z,11.80
2023-05-14T17:54:07.734Z,11.80
2023-05-14T17:56:35.637Z,11.90
2023-05-14T17:59:03.784Z,11.70
2023-05-14T18:01:31.839Z,11.70
2023-05-14T18:03:59.769Z,11.60
2023-05-14T18:06:27.692Z,11.70
2023-05-14T18:08:55.663Z,11.70
2023-05-14T18:11:24.907Z,11.50
2023-05-14T18:13:52.813Z,11.60
2023-05-14T18:16:20.817Z,11.60
2023-05-14T18:18:48.777Z,11.50
2023-05-14T18:21:16.739Z,11.40
2023-05-14T18:23:44.723Z,11.40
2023-05-14T18:26:12.575Z,11.20
2023-05-14T18:28:41.971Z,11.00
2023-05-14T18:31:09.915Z,11.10
2023-05-14T18:33:37.991Z,11.20
2023-05-14T18:36:06.423Z,11.00
2023-05-14T18:38:34.384Z,10.90
2023-05-14T18:41:02.545Z,10.90
2023-05-14T18:43:30.481Z,10.90
2023-05-14T18:45:59.671Z,10.90
2023-05-14T18:48:27.617Z,11.10
2023-05-14T18:50:55.671Z,11.00
2023-05-14T18:53:23.642Z,10.80
2023-05-14T18:55:51.495Z,10.70
2023-05-14T18:58:19.404Z,10.80
2023-05-14T19:00:47.499Z,11.00
2023-05-14T19:03:17.004Z,11.30
2023-05-14T19:05:45.032Z,11.30
2023-05-14T19:08:12.930Z,11.00
2023-05-14T19:10:40.828Z,10.90
2023-05-14T19:13:08.684Z,11.00
2023-05-14T19:15:36.812Z,10.80
2023-05-14T19:18:04.839Z,10.70
2023-05-14T19:20:34.101Z,10.70
2023-05-14T19:23:01.938Z,10.80
2023-05-14T19:25:29.925Z,10.80
2023-05-14T19:27:57.900Z,10.80
2023-05-14T19:30:25.758Z,10.70
2023-05-14T19:32:53.709Z,10.60
2023-05-14T19:35:21.678Z,10.80
2023-05-14T19:37:50.981Z,10.70
2023-05-14T19:40:19.004Z,10.70
2023-05-14T19:42:46.841Z,10.60
2023-05-14T19:45:14.959Z,10.70
2023-05-14T19:47:42.907Z,10.70
2023-05-14T19:50:11.462Z,10.60
2023-05-14T19:52:39.624Z,10.60
2023-05-14T19:55:09.344Z,10.70
2023-05-14T19:57:38.896Z,10.80
2023-05-14T20:00:08.831Z,11.00
2023-05-14T20:02:36.917Z,10.90
2023-05-14T20:05:06.722Z,10.80
2023-05-14T20:07:34.814Z,10.70
2023-05-14T20:10:02.718Z,10.90
2023-05-14T20:12:31.944Z,10.90
2023-05-14T20:14:59.863Z,10.70
2023-05-14T20:17:27.853Z,10.60
2023-05-14T20:19:56.380Z,10.80
2023-05-14T20:22:24.288Z,10.50
2023-05-14T20:24:52.709Z,10.40
2023-05-14T20:27:20.688Z,10.40
2023-05-14T20:29:51.321Z,10.50
2023-05-14T20:32:24.692Z,10.50
2023-05-14T20:34:52.677Z,10.40
2023-05-14T20:37:21.588Z,10.40
2023-05-14T20:39:49.541Z,10.20
2023-05-14T20:42:17.380Z,10.20
2023-05-14T20:44:45.564Z,10.40
2023-05-14T20:47:20.023Z,10.60
2023-05-14T20:49:47.949Z,10.80
2023-05-14T20:52:15.911Z,10.70
2023-05-14T20:54:43.889Z,10.60
2023-05-14T20:57:12.328Z,10.70
2023-05-14T20:59:40.226Z,10.50
2023-05-14T21:02:08.208Z,10.50
2023-05-14T21:04:37.732Z,10.60
2023-05-14T21:07:06.245Z,10.50
2023-05-14T21:09:34.176Z,10.50
2023-05-14T21:12:02.146Z,10.50
2023-05-14T21:14:30.075Z,10.50
2023-05-14T21:16:58.015Z,10.60
2023-05-14T21:19:25.876Z,10.50
2023-05-14T21:21:55.126Z,10.30
2023-05-14T21:24:23.171Z,10.30
2023-05-14T21:26:53.428Z,10.40
2023-05-14T21:29:21.495Z,10.60
2023-05-14T21:31:50.246Z,10.50
2023-05-14T21:34:18.273Z,10.40
2023-05-14T21:36:46.176Z,10.50
2023-05-14T21:39:15.359Z,10.60
2023-05-14T21:41:43.295Z,10.60
2023-05-14T21:44:11.162Z,10.50
2023-05-14T21:46:39.144Z,10.50
2023-05-14T21:49:07.104Z,10.40
2023-05-14T21:51:35.058Z,10.30
2023-05-14T21:54:02.964Z,10.30
2023-05-14T21:56:32.224Z,10.30
2023-05-14T21:59:00.158Z,10.50
2023-05-14T22:01:28.102Z,10.50
2023-05-14T22:03:57.713Z,10.60
2023-05-14T22:06:26.114Z,10.50
2023-05-14T22:08:53.971Z,10.50
2023-05-14T22:11:21.894Z,10.40
2023-05-14T22:13:51.142Z,10.40
2023-05-14T22:16:22.298Z,10.50
2023-05-14T22:18:50.286Z,10.50
2023-05-14T22:21:18.136Z,10.40
2023-05-14T22:23:46.411Z,10.50
2023-05-14T22:26:14.360Z,10.60
2023-05-14T22:28:43.125Z,10.50
2023-05-14T22:31:12.488Z,10.40
2023-05-14T22:33:40.383Z,10.40
2023-05-14T22:36:08.682Z,10.50
2023-05-14T22:38:36.562Z,10.40
2023-05-14T22:41:04.476Z,10.50
2023-05-14T22:43:32.403Z,10.50
2023-05-14T22:46:00.283Z,10.80
2023-05-14T22:48:29.572Z,10.50
2023-05-14T22:50:57.447Z,10.60
2023-05-14T22:53:25.522Z,10.50
2023-05-14T22:55:53.443Z,10.50
2023-05-14T22:58:21.457Z,10.50
2023-05-14T23:00:49.448Z,10.50
2023-05-14T23:03:17.295Z,10.50
2023-05-14T23:05:46.477Z,10.50
2023-05-14T23:08:14.372Z,10.50
2023-05-14T23:10:42.268Z,10.60
2023-05-14T23:13:10.120Z,10.60
2023-05-14T23:15:38.815Z,10.40
2023-05-14T23:18:07.090Z,10.40
2023-05-14T23:20:35.070Z,10.50
2023-05-14T23:23:04.491Z,10.40
2023-05-14T23:25:33.174Z,10.40
2023-05-14T23:28:01.182Z,10.40
2023-05-14T23:30:29.083Z,10.40
2023-05-14T23:32:57.031Z,10.40
2023-05-14T23:35:25.339Z,10.40
2023-05-14T23:37:55.118Z,10.10
2023-05-14T23:40:24.324Z,9.90
2023-05-14T23:42:52.217Z,10.00
2023-05-14T23:45:20.100Z,10.30
2023-05-14T23:47:47.991Z,10.30
2023-05-14T23:50:15.898Z,10.20
2023-05-14T23:52:43.885Z,10.10
2023-05-14T23:55:11.753Z,10.10
2023-05-14T23:57:41.109Z,10.10
